createdAt,value
2023-05-13T00:02:13.110Z,7.13
2023-05-13T00:04:39.838Z,6.30
2023-05-13T00:07:07.114Z,4.35
2023-05-13T00:09:33.880Z,5.53
2023-05-13T00:12:00.603Z,5.72
2023-05-13T00:14:27.334Z,5.07
2023-05-13T00:16:53.981Z,3.47
2023-05-13T00:19:20.732Z,3.30
2023-05-13T00:21:47.432Z,7.97
2023-05-13T00:24:14.080Z,4.72
2023-05-13T00:26:40.704Z,4.53
2023-05-13T00:29:07.581Z,7.63
2023-05-13T00:31:35.029Z,5.25
2023-05-13T00:34:01.799Z,5.75
2023-05-13T00:36:28.843Z,4.22
2023-05-13T00:38:55.685Z,4.20
2023-05-13T00:41:22.645Z,8.43
2023-05-13T00:43:49.418Z,3.70
2023-05-13T00:46:16.206Z,3.28
2023-05-13T00:48:43.429Z,3.80
2023-05-13T00:51:10.389Z,3.45
2023-05-13T00:53:37.618Z,4.75
2023-05-13T00:56:04.581Z,3.65
2023-05-13T00:58:31.317Z,4.25
2023-05-13T01:01:05.059Z,4.20
2023-05-13T01:03:53.940Z,4.38
2023-05-13T01:06:55.975Z,4.32
2023-05-13T01:09:35.278Z,3.85
2023-05-13T01:12:11.093Z,5.90
2023-05-13T01:14:46.190Z,6.55
2023-05-13T01:17:18.822Z,4.78
2023-05-13T01:19:54.993Z,4.40
2023-05-13T01:22:21.935Z,5.63
2023-05-13T01:24:50.466Z,6.10
2023-05-13T01:27:17.574Z,3.92
2023-05-13T01:29:45.686Z,3.58
2023-05-13T01:34:43.502Z,7.72
2023-05-13T01:37:10.174Z,4.75
2023-05-13T01:39:38.364Z,6.50
2023-05-13T01:42:09.287Z,6.47
2023-05-13T01:44:38.606Z,5.03
2023-05-13T01:47:05.471Z,4.00
2023-05-13T01:49:32.077Z,7.95
2023-05-13T01:51:58.914Z,3.58
2023-05-13T01:54:27.698Z,3.90
2023-05-13T01:56:59.500Z,5.30
2023-05-13T01:59:26.351Z,3.85
2023-05-13T02:01:53.311Z,3.65
2023-05-13T02:04:20.181Z,4.65
2023-05-13T02:06:47.607Z,5.47
2023-05-13T02:09:15.020Z,3.10
2023-05-13T02:11:41.675Z,3.60
2023-05-13T02:14:08.423Z,5.72
2023-05-13T02:16:35.272Z,5.13
2023-05-13T02:19:05.837Z,4.38
2023-05-13T02:21:32.786Z,3.70
2023-05-13T02:23:59.393Z,3.90
2023-05-13T02:26:28.639Z,5.60
2023-05-13T02:28:55.440Z,3.80
2023-05-13T02:31:22.263Z,4.72
2023-05-13T02:33:49.110Z,7.38
2023-05-13T02:36:16.040Z,4.13
2023-05-13T02:38:42.809Z,5.18
2023-05-13T02:41:10.723Z,4.88
2023-05-13T02:43:37.672Z,5.05
2023-05-13T02:46:06.231Z,5.20
2023-05-13T02:48:34.053Z,4.50
2023-05-13T02:51:01.668Z,7.10
2023-05-13T02:53:28.539Z,4.78
2023-05-13T02:56:00.215Z,3.58
2023-05-13T02:58:26.929Z,3.40
2023-05-13T03:00:54.557Z,3.38
2023-05-13T03:03:24.316Z,3.08
2023-05-13T03:05:51.101Z,2.90
2023-05-13T03:08:17.768Z,3.65
2023-05-13T03:10:44.501Z,3.35
2023-05-13T03:13:12.370Z,2.85
2023-05-13T03:15:39.031Z,3.35
2023-05-13T03:18:05.948Z,4.13
2023-05-13T03:20:33.173Z,6.63
2023-05-13T03:23:02.685Z,4.97
2023-05-13T03:25:31.393Z,3.25
2023-05-13T03:27:58.828Z,2.70
2023-05-13T03:30:28.744Z,4.05
2023-05-13T03:33:13.191Z,3.08
2023-05-13T03:35:40.815Z,4.45
2023-05-13T03:38:07.890Z,5.72
2023-05-13T03:40:38.092Z,5.10
2023-05-13T03:43:05.979Z,4.20
2023-05-13T03:45:35.626Z,3.30
2023-05-13T03:48:07.185Z,4.15
2023-05-13T03:50:33.966Z,3.15
2023-05-13T03:53:00.629Z,2.90
2023-05-13T03:55:27.367Z,6.85
2023-05-13T03:57:54.432Z,3.30
2023-05-13T04:00:22.999Z,4.38
2023-05-13T04:02:50.233Z,4.10
2023-05-13T04:05:17.773Z,3.75
2023-05-13T04:07:46.384Z,6.32
2023-05-13T04:10:15.439Z,3.45
2023-05-13T04:12:42.510Z,4.00
2023-05-13T04:15:09.459Z,3.75
2023-05-13T04:17:36.234Z,7.53
2023-05-13T04:20:03.012Z,6.10
2023-05-13T04:22:30.659Z,3.75
2023-05-13T04:24:57.333Z,3.55
2023-05-13T04:27:24.644Z,4.38
2023-05-13T04:29:55.916Z,4.43
2023-05-13T04:32:23.063Z,6.53
2023-05-13T04:34:52.900Z,9.05
2023-05-13T04:37:20.272Z,4.28
2023-05-13T04:39:48.588Z,3.10
2023-05-13T04:42:18.072Z,3.37
2023-05-13T04:44:44.741Z,4.43
2023-05-13T04:47:11.604Z,4.03
2023-05-13T04:49:38.419Z,4.35
2023-05-13T04:52:07.005Z,3.15
2023-05-13T04:54:39.334Z,4.95
2023-05-13T04:57:06.883Z,2.70
2023-05-13T04:59:33.607Z,5.25
2023-05-13T05:02:00.504Z,5.32
2023-05-13T05:04:27.816Z,3.88
2023-05-13T05:06:55.407Z,4.38
2023-05-13T05:09:22.107Z,4.65
2023-05-13T05:11:51.207Z,3.22
2023-05-13T05:14:20.728Z,4.40
2023-05-13T05:16:49.446Z,5.60
2023-05-13T05:19:16.231Z,5.05
2023-05-13T05:21:43.134Z,3.88
2023-05-13T05:24:10.893Z,2.90
2023-05-13T05:26:37.733Z,5.05
2023-05-13T05:29:06.145Z,4.97
2023-05-13T05:31:33.250Z,3.47
2023-05-13T05:34:02.027Z,3.80
2023-05-13T05:36:29.361Z,3.10
2023-05-13T05:38:56.112Z,3.75
2023-05-13T05:41:29.502Z,3.55
2023-05-13T05:43:56.742Z,3.58
2023-05-13T05:46:23.489Z,2.92
2023-05-13T05:48:50.756Z,2.92
2023-05-13T05:51:17.447Z,3.38
2023-05-13T05:53:44.292Z,5.03
2023-05-13T05:56:13.161Z,4.82
2023-05-13T05:58:39.849Z,3.50
2023-05-13T06:01:06.536Z,4.43
2023-05-13T06:03:33.425Z,3.72
2023-05-13T06:06:00.506Z,4.75
2023-05-13T06:08:30.233Z,4.80
2023-05-13T06:10:58.269Z,3.35
2023-05-13T06:13:26.216Z,3.35
2023-05-13T06:15:53.031Z,7.05
2023-05-13T06:18:19.860Z,3.25
2023-05-13T06:20:47.216Z,5.03
2023-05-13T06:23:15.001Z,3.10
2023-05-13T06:25:42.010Z,6.85
2023-05-13T06:28:10.821Z,4.15
2023-05-13T06:30:38.049Z,3.55
2023-05-13T06:33:05.177Z,3.45
2023-05-13T06:35:31.934Z,3.00
2023-05-13T06:38:00.573Z,2.15
2023-05-13T06:40:27.681Z,3.78
2023-05-13T06:42:55.442Z,1.77
2023-05-13T06:45:28.896Z,3.15
2023-05-13T06:47:56.436Z,3.58
2023-05-13T06:50:23.466Z,2.40
2023-05-13T06:52:50.348Z,2.28
2023-05-13T06:55:18.784Z,1.80
2023-05-13T06:57:46.881Z,1.50
2023-05-13T07:00:14.775Z,1.20
2023-05-13T07:02:42.056Z,2.70
2023-05-13T07:05:11.385Z,2.33
2023-05-13T07:07:38.705Z,2.53
2023-05-13T07:10:05.653Z,2.03
2023-05-13T07:12:32.688Z,2.45
2023-05-13T07:14:59.380Z,2.17
2023-05-13T07:17:26.121Z,2.75
2023-05-13T07:19:52.981Z,1.58
2023-05-13T07:22:19.663Z,5.05
2023-05-13T07:24:46.287Z,3.15
2023-05-13T07:27:13.055Z,1.50
2023-05-13T07:29:39.670Z,2.30
2023-05-13T07:32:07.020Z,1.23
2023-05-13T07:34:33.674Z,1.38
2023-05-13T07:37:00.369Z,1.13
2023-05-13T07:39:27.863Z,0.75
2023-05-13T07:41:55.000Z,0.82
2023-05-13T07:44:22.117Z,0.90
2023-05-13T07:46:49.405Z,0.98
2023-05-13T07:49:16.208Z,3.78
2023-05-13T07:51:42.986Z,1.10
2023-05-13T07:54:10.208Z,0.98
2023-05-13T07:56:38.169Z,1.73
2023-05-13T07:59:05.015Z,2.15
2023-05-13T08:01:31.896Z,2.08
2023-05-13T08:03:58.800Z,1.60
2023-05-13T08:06:25.722Z,4.72
2023-05-13T08:08:52.351Z,1.60
2023-05-13T08:11:19.155Z,1.98
2023-05-13T08:13:45.758Z,1.05
2023-05-13T08:16:12.493Z,2.25
2023-05-13T08:18:39.324Z,1.77
2023-05-13T08:21:06.053Z,3.03
2023-05-13T08:23:44.295Z,2.10
2023-05-13T08:26:12.415Z,1.27
2023-05-13T08:28:39.090Z,1.13
2023-05-13T08:31:05.870Z,0.60
2023-05-13T08:33:32.624Z,5.32
2023-05-13T08:36:00.783Z,1.23
2023-05-13T08:38:27.390Z,1.35
2023-05-13T08:40:54.195Z,1.08
2023-05-13T08:43:24.025Z,0.40
2023-05-13T08:45:53.477Z,2.95
2023-05-13T08:48:20.870Z,0.50
2023-05-13T08:50:48.063Z,1.77
2023-05-13T08:53:17.015Z,0.50
2023-05-13T08:55:43.696Z,0.68
2023-05-13T08:58:10.429Z,0.60
2023-05-13T09:00:37.353Z,0.82
2023-05-13T09:03:04.298Z,0.98
2023-05-13T09:05:32.049Z,2.17
2023-05-13T09:07:59.097Z,2.15
2023-05-13T09:10:25.674Z,0.55
2023-05-13T09:12:54.275Z,0.90
2023-05-13T09:15:23.482Z,1.38
2023-05-13T09:17:52.943Z,0.70
2023-05-13T09:20:21.105Z,1.30
2023-05-13T09:22:54.282Z,0.40
2023-05-13T09:25:24.372Z,0.95
2023-05-13T09:30:27.240Z,1.70
2023-05-13T09:33:10.222Z,0.70
2023-05-13T09:35:42.337Z,0.50
2023-05-13T09:38:39.150Z,1.15
2023-05-13T09:41:05.862Z,0.95
2023-05-13T09:43:33.341Z,0.32
2023-05-13T09:46:04.634Z,0.75
2023-05-13T09:48:34.839Z,0.98
2023-05-13T09:51:01.606Z,1.98
2023-05-13T09:53:28.711Z,0.85
2023-05-13T09:55:57.766Z,1.20
2023-05-13T09:58:27.962Z,1.02
2023-05-13T10:00:55.114Z,0.90
2023-05-13T10:03:21.813Z,1.80
2023-05-13T10:05:48.994Z,3.92
2023-05-13T10:08:15.795Z,3.13
2023-05-13T10:10:45.894Z,1.10
2023-05-13T10:15:49.974Z,0.95
2023-05-13T10:18:17.657Z,1.35
2023-05-13T10:20:44.728Z,0.75
2023-05-13T10:23:12.554Z,2.63
2023-05-13T10:25:39.394Z,0.98
2023-05-13T10:28:06.810Z,1.15
2023-05-13T10:30:35.891Z,0.82
2023-05-13T10:33:03.373Z,1.00
2023-05-13T10:35:34.602Z,2.75
2023-05-13T10:38:06.761Z,2.95
2023-05-13T10:40:48.308Z,1.60
2023-05-13T10:43:22.090Z,1.95
2023-05-13T10:46:16.564Z,0.80
2023-05-13T10:48:47.727Z,1.40
2023-05-13T10:51:15.930Z,1.25
2023-05-13T10:53:49.914Z,0.77
2023-05-13T10:56:19.741Z,1.15
2023-05-13T10:59:06.656Z,0.82
2023-05-13T11:01:39.279Z,3.00
2023-05-13T11:04:06.173Z,2.15
2023-05-13T11:06:41.177Z,1.30
2023-05-13T11:09:29.040Z,1.27
2023-05-13T11:11:58.220Z,0.82
2023-05-13T11:14:26.759Z,2.20
2023-05-13T11:17:02.446Z,1.45
2023-05-13T11:19:37.406Z,1.00
2023-05-13T11:22:26.404Z,1.30
2023-05-13T11:25:05.441Z,0.90
2023-05-13T11:27:40.035Z,2.00
2023-05-13T11:30:08.388Z,1.08
2023-05-13T11:32:56.184Z,1.20
2023-05-13T11:35:24.637Z,1.25
2023-05-13T11:37:51.353Z,1.98
2023-05-13T11:40:30.639Z,1.10
2023-05-13T11:42:58.232Z,1.00
2023-05-13T11:45:25.773Z,0.90
2023-05-13T11:47:53.534Z,2.20
2023-05-13T11:50:20.644Z,0.70
2023-05-13T11:52:54.980Z,0.85
2023-05-13T11:55:29.101Z,1.35
2023-05-13T11:57:56.513Z,1.40
2023-05-13T12:00:27.375Z,1.27
2023-05-13T12:02:54.697Z,0.63
2023-05-13T12:05:22.157Z,1.17
2023-05-13T12:07:49.351Z,0.73
2023-05-13T12:10:16.088Z,0.85
2023-05-13T12:12:44.309Z,1.02
2023-05-13T12:15:11.999Z,1.10
2023-05-13T12:17:39.172Z,1.10
2023-05-13T12:20:14.332Z,0.82
2023-05-13T12:22:44.260Z,1.75
2023-05-13T12:25:38.982Z,2.60
2023-05-13T12:28:18.962Z,9.10
2023-05-13T12:31:05.872Z,4.20
2023-05-13T12:33:40.646Z,0.77
2023-05-13T12:36:33.710Z,1.08
2023-05-13T12:39:10.899Z,1.08
2023-05-13T12:41:39.540Z,1.33
2023-05-13T12:44:09.978Z,1.05
2023-05-13T12:46:37.258Z,0.85
2023-05-13T12:49:05.305Z,1.10
2023-05-13T12:51:35.743Z,3.30
2023-05-13T12:54:02.509Z,2.20
2023-05-13T12:56:29.229Z,1.58
2023-05-13T12:58:56.290Z,1.45
2023-05-13T13:01:23.136Z,0.98
2023-05-13T13:03:50.069Z,1.45
2023-05-13T13:06:17.536Z,0.70
2023-05-13T13:08:44.175Z,2.30
2023-05-13T13:11:14.761Z,3.10
2023-05-13T13:13:41.744Z,1.20
2023-05-13T13:16:09.221Z,4.05
2023-05-13T13:18:36.137Z,0.57
2023-05-13T13:21:02.849Z,0.60
2023-05-13T13:23:29.676Z,0.75
2023-05-13T13:25:58.414Z,0.52
2023-05-13T13:28:28.775Z,0.77
2023-05-13T13:33:22.428Z,1.27
2023-05-13T13:35:49.486Z,1.08
2023-05-13T13:38:16.096Z,0.82
2023-05-13T13:40:42.824Z,0.50
2023-05-13T13:43:09.561Z,1.58
2023-05-13T13:45:36.478Z,0.73
2023-05-13T13:48:03.384Z,2.25
2023-05-13T13:50:30.208Z,0.98
2023-05-13T13:52:56.855Z,1.02
2023-05-13T13:55:24.223Z,1.15
2023-05-13T13:57:51.896Z,2.25
2023-05-13T14:00:18.743Z,0.70
2023-05-13T14:02:45.642Z,0.68
2023-05-13T14:05:13.025Z,0.60
2023-05-13T14:07:39.980Z,0.95
2023-05-13T14:10:07.413Z,4.10
2023-05-13T14:12:35.820Z,2.47
2023-05-13T14:15:02.786Z,0.50
2023-05-13T14:17:29.466Z,1.75
2023-05-13T14:19:56.184Z,2.25
2023-05-13T14:22:23.675Z,0.80
2023-05-13T14:24:53.294Z,1.35
2023-05-13T14:27:20.878Z,1.00
2023-05-13T14:29:47.820Z,1.70
2023-05-13T14:32:14.590Z,2.30
2023-05-13T14:34:41.467Z,1.85
2023-05-13T14:37:08.358Z,2.80
2023-05-13T14:39:35.210Z,1.75
2023-05-13T14:42:02.039Z,1.10
2023-05-13T14:44:28.763Z,1.27
2023-05-13T14:46:56.045Z,1.08
2023-05-13T14:49:22.814Z,3.72
2023-05-13T14:51:49.491Z,1.75
2023-05-13T14:54:17.827Z,0.40
2023-05-13T14:56:45.349Z,1.67
2023-05-13T14:59:11.961Z,0.95
2023-05-13T15:01:38.807Z,0.63
2023-05-13T15:04:05.957Z,0.68
2023-05-13T15:06:33.208Z,1.90
2023-05-13T15:08:59.934Z,0.63
2023-05-13T15:11:28.321Z,1.42
2023-05-13T15:13:55.406Z,0.60
2023-05-13T15:16:22.342Z,0.57
2023-05-13T15:18:50.380Z,0.38
2023-05-13T15:21:17.512Z,0.70
2023-05-13T15:23:44.170Z,1.55
2023-05-13T15:26:10.924Z,0.47
2023-05-13T15:28:37.948Z,0.90
2023-05-13T15:31:05.465Z,1.08
2023-05-13T15:33:32.782Z,0.50
2023-05-13T15:36:00.055Z,0.82
2023-05-13T15:38:27.186Z,0.90
2023-05-13T15:40:54.215Z,0.85
2023-05-13T15:43:21.110Z,2.60
2023-05-13T15:45:48.266Z,0.50
2023-05-13T15:48:14.953Z,1.40
2023-05-13T15:50:41.802Z,0.75
2023-05-13T15:53:08.433Z,1.13
2023-05-13T15:55:36.935Z,1.27
2023-05-13T15:58:03.634Z,0.60
2023-05-13T16:00:31.229Z,1.35
2023-05-13T16:02:57.959Z,1.75
2023-05-13T16:05:25.911Z,2.28
2023-05-13T16:07:52.595Z,1.15
2023-05-13T16:10:19.407Z,0.75
2023-05-13T16:12:46.096Z,0.80
2023-05-13T16:15:12.823Z,0.60
2023-05-13T16:17:39.646Z,1.08
2023-05-13T16:20:07.456Z,1.92
2023-05-13T16:22:38.120Z,0.75
2023-05-13T16:25:09.879Z,1.98
2023-05-13T16:27:37.500Z,1.20
2023-05-13T16:30:06.169Z,2.25
2023-05-13T16:32:33.554Z,1.83
2023-05-13T16:35:01.566Z,0.57
2023-05-13T16:37:28.865Z,0.82
2023-05-13T16:39:55.752Z,0.70
2023-05-13T16:42:22.915Z,2.10
2023-05-13T16:44:49.543Z,2.92
2023-05-13T16:47:16.280Z,0.70
2023-05-13T16:49:42.970Z,0.38
2023-05-13T16:52:09.774Z,1.98
2023-05-13T16:54:36.551Z,0.43
2023-05-13T16:57:03.347Z,0.50
2023-05-13T16:59:30.026Z,0.77
2023-05-13T17:01:56.741Z,2.20
2023-05-13T17:04:23.453Z,0.65
2023-05-13T17:06:50.917Z,0.93
2023-05-13T17:09:17.557Z,1.27
2023-05-13T17:11:44.288Z,0.60
2023-05-13T17:14:10.956Z,0.63
2023-05-13T17:16:38.741Z,0.30
2023-05-13T17:19:05.498Z,2.28
2023-05-13T17:21:32.384Z,0.85
2023-05-13T17:23:59.525Z,0.40
2023-05-13T17:26:26.490Z,1.35
2023-05-13T17:28:53.368Z,1.55
2023-05-13T17:31:20.214Z,1.00
2023-05-13T17:33:46.919Z,0.85
2023-05-13T17:36:13.613Z,0.57
2023-05-13T17:38:40.210Z,1.00
2023-05-13T17:41:06.989Z,0.70
2023-05-13T17:43:33.647Z,0.70
2023-05-13T17:46:00.656Z,2.75
2023-05-13T17:48:27.411Z,0.95
2023-05-13T17:50:54.330Z,0.63
2023-05-13T17:53:21.419Z,1.30
2023-05-13T17:55:48.707Z,1.67
2023-05-13T17:58:18.449Z,2.78
2023-05-13T18:00:45.151Z,0.88
2023-05-13T18:03:11.831Z,1.70
2023-05-13T18:05:38.666Z,1.33
2023-05-13T18:08:05.376Z,0.85
2023-05-13T18:10:32.107Z,0.70
2023-05-13T18:12:58.688Z,1.65
2023-05-13T18:15:25.362Z,2.42
2023-05-13T18:17:52.099Z,1.50
2023-05-13T18:20:19.113Z,0.77
2023-05-13T18:22:45.815Z,1.33
2023-05-13T18:25:12.578Z,1.15
2023-05-13T18:27:39.232Z,2.30
2023-05-13T18:30:07.218Z,1.35
2023-05-13T18:32:33.837Z,1.23
2023-05-13T18:35:00.691Z,1.65
2023-05-13T18:37:27.394Z,4.30
2023-05-13T18:39:54.173Z,1.20
2023-05-13T18:42:21.246Z,3.60
2023-05-13T18:44:48.029Z,1.90
2023-05-13T18:47:14.660Z,1.75
2023-05-13T18:49:41.467Z,2.10
2023-05-13T18:52:08.205Z,1.42
2023-05-13T18:54:35.410Z,1.30
2023-05-13T18:57:02.121Z,1.92
2023-05-13T18:59:28.808Z,1.90
2023-05-13T19:01:55.634Z,1.58
2023-05-13T19:04:22.647Z,1.73
2023-05-13T19:06:49.431Z,2.20
2023-05-13T19:09:17.087Z,1.65
2023-05-13T19:11:44.282Z,5.13
2023-05-13T19:14:11.017Z,6.10
2023-05-13T19:16:37.786Z,2.63
2023-05-13T19:19:04.688Z,2.80
2023-05-13T19:21:31.661Z,2.50
2023-05-13T19:23:58.801Z,1.90
2023-05-13T19:26:25.607Z,4.15
2023-05-13T19:28:52.474Z,3.95
2023-05-13T19:31:19.243Z,2.03
2023-05-13T19:33:46.443Z,2.60
2023-05-13T19:36:13.389Z,7.72
2023-05-13T19:38:39.974Z,5.00
2023-05-13T19:41:06.688Z,2.20
2023-05-13T19:43:33.334Z,1.55
2023-05-13T19:46:00.105Z,1.70
2023-05-13T19:48:28.388Z,1.70
2023-05-13T19:50:57.916Z,2.90
2023-05-13T19:53:24.592Z,4.50
2023-05-13T19:55:51.306Z,2.63
2023-05-13T19:58:18.026Z,5.53
2023-05-13T20:00:44.908Z,2.63
2023-05-13T20:03:11.620Z,5.22
2023-05-13T20:05:39.857Z,5.40
2023-05-13T20:08:06.645Z,4.50
2023-05-13T20:10:35.252Z,3.97
2023-05-13T20:13:03.618Z,1.45
2023-05-13T20:15:31.345Z,1.92
2023-05-13T20:17:58.026Z,2.33
2023-05-13T20:20:25.001Z,4.30
2023-05-13T20:22:51.896Z,3.42
2023-05-13T20:25:18.529Z,2.40
2023-05-13T20:27:45.424Z,4.10
2023-05-13T20:30:12.676Z,3.03
2023-05-13T20:32:39.491Z,2.40
2023-05-13T20:35:07.600Z,2.53
2023-05-13T20:37:34.780Z,3.97
2023-05-13T20:40:01.471Z,3.20
2023-05-13T20:42:28.186Z,5.85
2023-05-13T20:44:54.749Z,4.82
2023-05-13T20:47:21.688Z,3.70
2023-05-13T20:49:48.368Z,2.97
2023-05-13T20:52:15.079Z,3.90
2023-05-13T20:54:41.735Z,3.00
2023-05-13T20:57:08.412Z,2.55
2023-05-13T20:59:35.095Z,1.73
2023-05-13T21:02:01.891Z,2.35
2023-05-13T21:04:28.787Z,3.13
2023-05-13T21:06:55.603Z,7.63
2023-05-13T21:09:22.244Z,3.35
2023-05-13T21:11:49.030Z,3.25
2023-05-13T21:14:15.640Z,1.77
2023-05-13T21:16:42.665Z,4.63
2023-05-13T21:19:18.488Z,2.17
2023-05-13T21:21:45.225Z,4.03
2023-05-13T21:24:11.881Z,2.30
2023-05-13T21:26:38.504Z,2.40
2023-05-13T21:29:05.193Z,2.78
2023-05-13T21:31:31.954Z,1.65
2023-05-13T21:33:58.605Z,2.13
2023-05-13T21:36:25.631Z,1.73
2023-05-13T21:38:54.091Z,4.95
2023-05-13T21:41:21.083Z,2.45
2023-05-13T21:43:47.728Z,4.25
2023-05-13T21:46:14.448Z,3.55
2023-05-13T21:48:41.223Z,2.17
2023-05-13T21:51:07.907Z,1.90
2023-05-13T21:53:34.483Z,1.70
2023-05-13T21:56:01.273Z,2.20
2023-05-13T21:58:27.882Z,4.97
2023-05-13T22:00:54.546Z,5.07
2023-05-13T22:03:21.431Z,2.40
2023-05-13T22:05:48.204Z,4.28
2023-05-13T22:08:14.787Z,3.17
2023-05-13T22:10:41.704Z,3.97
2023-05-13T22:13:08.352Z,5.28
2023-05-13T22:15:35.060Z,3.10
2023-05-13T22:18:01.827Z,5.15
2023-05-13T22:20:28.598Z,2.63
2023-05-13T22:22:55.279Z,3.00
2023-05-13T22:25:22.004Z,3.28
2023-05-13T22:27:50.552Z,3.75
2023-05-13T22:30:17.402Z,3.33
2023-05-13T22:32:44.093Z,2.63
2023-05-13T22:35:11.030Z,2.13
2023-05-13T22:37:37.711Z,2.00
2023-05-13T22:40:05.056Z,2.40
2023-05-13T22:42:31.850Z,2.05
2023-05-13T22:44:58.561Z,2.25
2023-05-13T22:47:25.270Z,4.93
2023-05-13T22:49:51.993Z,5.38
2023-05-13T22:52:18.634Z,2.38
2023-05-13T22:54:45.356Z,3.08
2023-05-13T22:57:11.901Z,4.43
2023-05-13T22:59:38.786Z,3.00
2023-05-13T23:02:05.640Z,3.20
2023-05-13T23:04:32.447Z,2.65
2023-05-13T23:06:59.073Z,2.17
2023-05-13T23:09:25.705Z,4.88
2023-05-13T23:11:52.348Z,3.28
2023-05-13T23:14:19.022Z,2.67
2023-05-13T23:16:45.909Z,4.18
2023-05-13T23:19:12.975Z,3.70
2023-05-13T23:21:39.674Z,2.92
2023-05-13T23:24:06.479Z,3.08
2023-05-13T23:26:33.141Z,2.95
2023-05-13T23:28:59.787Z,2.92
2023-05-13T23:31:26.519Z,3.15
2023-05-13T23:33:53.287Z,3.10
2023-05-13T23:36:19.858Z,3.30
2023-05-13T23:38:46.551Z,4.22
2023-05-13T23:41:13.156Z,8.70
2023-05-13T23:43:39.878Z,5.80
2023-05-13T23:46:06.567Z,2.30
2023-05-13T23:48:33.358Z,2.25
2023-05-13T23:51:00.192Z,3.85
2023-05-13T23:53:27.023Z,3.67
2023-05-13T23:55:53.631Z,5.32
2023-05-13T23:58:20.520Z,4.57
